Time;durP1;ratioP1;P1;durP2;ratioP2;P2;SDS_P1;SDS_P2;PMS_P1;PMS_P2;Temp;Humidity;BMP_temperature;BMP_pressure;BME280_temperature;BME280_humidity;BME280_pressure;Samples;Min_cycle;Max_cycle;Signal;HPM_P1;HPM_P2
2021/11/03 00:00:22;;;;;;;;;;;;;;;21.62;38.12;94439.34;1050924;28;1166;-57
2021/11/03 00:00:53;;;;;;;;;;;;;;;21.62;38.41;94447.28;1050681;28;1337;-60
2021/11/03 00:01:23;;;;;;;;;;;;;;;21.60;38.50;94444.94;1044712;28;999;-59
2021/11/03 00:01:53;;;;;;;;;;;;;;;21.61;38.29;94443.09;1043767;28;1858;-57
2021/11/03 00:02:24;;;;;;;;;;;;;;;21.62;38.48;94439.34;1040554;28;1534;-59
2021/11/03 00:02:55;;;;;;;;;;;;;;;21.64;38.10;94445.09;1039619;28;2061;-61
2021/11/03 00:03:25;;;;;;;;;;;;;;;21.64;38.14;94442.47;1040584;28;1190;-60
2021/11/03 00:03:56;;;;;;;;;;;;;;;21.63;38.16;94438.28;1035839;28;1857;-59
2021/11/03 00:04:28;;;;;;;;;;;;;;;21.65;38.02;94441.38;1044385;28;1119;-57
2021/11/03 00:05:00;;;;;;;;;;;;;;;21.61;38.27;94443.88;1037096;28;1906;-59
2021/11/03 00:05:31;;;;;;;;;;;;;;;21.61;38.34;94441.25;1036641;28;1139;-59
2021/11/03 00:06:02;;;;;;;;;;;;;;;21.62;38.20;94437.50;1037252;28;1160;-59
2021/11/03 00:06:32;;;;;;;;;;;;;;;21.62;38.17;94439.34;1039101;28;2024;-59
2021/11/03 00:07:03;;;;;;;;;;;;;;;21.59;38.05;94435.50;1044224;28;1029;-58
2021/11/03 00:07:34;;;;;;;;;;;;;;;21.60;38.18;94438.91;1044370;28;1924;-58
2021/11/03 00:08:05;;;;;;;;;;;;;;;21.60;38.00;94433.63;1043529;28;883;-60
2021/11/03 00:08:35;;;;;;;;;;;;;;;21.60;38.06;94433.63;1045154;28;1167;-59
2021/11/03 00:09:06;;;;;;;;;;;;;;;21.60;38.32;94441.53;1049347;28;1132;-58
2021/11/03 00:09:36;;;;;;;;;;;;;;;21.60;38.12;94433.63;1040685;28;1399;-59
2021/11/03 00:10:07;;;;;;;;;;;;;;;21.59;38.05;94438.13;1040795;28;1140;-58
2021/11/03 00:10:41;;;;;;;;;;;;;;;21.61;37.85;94440.47;1041172;28;650;-59
2021/11/03 00:11:12;;;;;;;;;;;;;;;21.59;38.18;94438.13;1037583;28;1104;-58
2021/11/03 00:11:42;;;;;;;;;;;;;;;21.62;37.89;94442.00;1040585;28;1183;-58
2021/11/03 00:12:13;;;;;;;;;;;;;;;21.62;37.98;94442.00;1040342;28;1221;-59
2021/11/03 00:12:44;;;;;;;;;;;;;;;21.61;38.06;94435.97;1036482;28;1961;-59
2021/11/03 00:13:14;;;;;;;;;;;;;;;21.61;38.27;94435.19;1044958;28;1150;-59
2021/11/03 00:13:45;;;;;;;;;;;;;;;21.60;38.06;94437.03;1038601;28;1566;-58
2021/11/03 00:14:16;;;;;;;;;;;;;;;21.60;38.20;94439.69;1044727;28;1076;-58
2021/11/03 00:14:46;;;;;;;;;;;;;;;21.60;38.05;94439.69;1048537;28;1225;-59
2021/11/03 00:15:17;;;;;;;;;;;;;;;21.62;38.08;94442.00;1049010;28;1135;-58
2021/11/03 00:15:47;;;;;;;;;;;;;;;21.61;37.95;94440.47;1049235;28;1036;-60
2021/11/03 00:16:18;;;;;;;;;;;;;;;21.61;38.43;94440.47;1048333;28;1161;-58
2021/11/03 00:16:48;;;;;;;;;;;;;;;21.60;38.09;94436.25;1049274;28;1032;-59
2021/11/03 00:17:19;;;;;;;;;;;;;;;21.58;38.33;94441.06;1049369;28;1217;-58
2021/11/03 00:17:50;;;;;;;;;;;;;;;21.59;38.02;94438.13;1047674;28;1950;-58
2021/11/03 00:18:20;;;;;;;;;;;;;;;21.59;38.30;94435.50;1053542;28;1098;-58
2021/11/03 00:18:51;;;;;;;;;;;;;;;21.58;38.14;94435.78;1053145;28;1064;-58
2021/11/03 00:19:21;;;;;;;;;;;;;;;21.55;38.44;94434.56;1048885;28;1574;-59
2021/11/03 00:19:52;;;;;;;;;;;;;;;21.57;38.06;94436.91;1048889;28;1128;-59
2021/11/03 00:20:22;;;;;;;;;;;;;;;21.58;38.05;94425.25;1048968;28;1079;-59
2021/11/03 00:20:54;;;;;;;;;;;;;;;21.59;38.32;94432.09;1049176;28;1013;-59
2021/11/03 00:21:25;;;;;;;;;;;;;;;21.56;38.20;94427.41;1048076;28;1477;-59
2021/11/03 00:21:55;;;;;;;;;;;;;;;21.57;38.40;94431.63;1048694;28;1079;-60
2021/11/03 00:22:26;;;;;;;;;;;;;;;21.55;38.13;94429.31;1048722;28;1202;-57
2021/11/03 00:22:57;;;;;;;;;;;;;;;21.57;37.87;94427.13;1047810;28;1904;-59
2021/11/03 00:23:27;;;;;;;;;;;;;;;21.56;38.25;94430.84;1049069;28;1182;-59
2021/11/03 00:23:58;;;;;;;;;;;;;;;21.57;38.31;94429.75;1048742;28;1508;-59
2021/11/03 00:24:28;;;;;;;;;;;;;;;21.56;38.18;94433.47;1048015;28;1204;-60
2021/11/03 00:24:59;;;;;;;;;;;;;;;21.58;38.04;94431.31;1047927;28;1906;-59
2021/11/03 00:25:30;;;;;;;;;;;;;;;21.57;38.13;94427.13;1049400;28;1174;-58
2021/11/03 00:26:00;;;;;;;;;;;;;;;21.60;37.92;94428.34;1048982;28;1028;-59
2021/11/03 00:26:31;;;;;;;;;;;;;;;21.57;37.94;94423.72;1049472;28;1134;-59
2021/11/03 00:27:02;;;;;;;;;;;;;;;21.58;37.86;94427.88;1049371;28;1079;-59
2021/11/03 00:27:32;;;;;;;;;;;;;;;21.59;38.09;94429.44;1048936;28;1174;-57
2021/11/03 00:28:03;;;;;;;;;;;;;;;21.58;38.00;94425.25;1048356;28;2225;-58
2021/11/03 00:28:34;;;;;;;;;;;;;;;21.58;38.04;94422.59;1049055;28;992;-58
2021/11/03 00:29:04;;;;;;;;;;;;;;;21.56;38.04;94422.94;1045420;28;1338;-60
2021/11/03 00:29:35;;;;;;;;;;;;;;;21.55;38.03;94416.13;1044723;28;1120;-58
2021/11/03 00:30:06;;;;;;;;;;;;;;;21.56;37.93;94416.88;1040943;28;1029;-59
2021/11/03 00:30:37;;;;;;;;;;;;;;;21.54;37.95;94406.66;1040834;28;1168;-59
2021/11/03 00:31:07;;;;;;;;;;;;;;;21.58;37.85;94410.22;1042163;28;1838;-58
2021/11/03 00:31:38;;;;;;;;;;;;;;;21.56;38.18;94411.59;1036832;28;887;-60
2021/11/03 00:32:09;;;;;;;;;;;;;;;21.54;38.07;94413.78;1044473;28;1441;-59
2021/11/03 00:32:40;;;;;;;;;;;;;;;21.53;38.23;94409.59;1043868;28;2361;-59
2021/11/03 00:33:10;;;;;;;;;;;;;;;21.51;38.31;94409.13;1044778;28;1604;-59
2021/11/03 00:33:41;;;;;;;;;;;;;;;21.51;38.37;94404.66;1049622;28;1076;-58
2021/11/03 00:34:11;;;;;;;;;;;;;;;21.54;37.86;94400.59;1048616;28;1441;-59
2021/11/03 00:34:42;;;;;;;;;;;;;;;21.53;38.08;94401.69;1047292;28;1516;-59
2021/11/03 00:35:13;;;;;;;;;;;;;;;21.53;38.22;94399.06;1048918;28;962;-59
2021/11/03 00:35:44;;;;;;;;;;;;;;;21.54;38.15;94404.00;1045130;28;1399;-59
2021/11/03 00:36:14;;;;;;;;;;;;;;;21.55;37.79;94396.88;1044646;28;1426;-59
2021/11/03 00:36:45;;;;;;;;;;;;;;;21.53;38.36;94402.47;1044557;28;1092;-58
2021/11/03 00:37:15;;;;;;;;;;;;;;;21.56;37.80;94398.41;1045075;28;1300;-59
2021/11/03 00:37:46;;;;;;;;;;;;;;;21.52;38.60;94394.84;1048136;28;1913;-59
2021/11/03 00:38:16;;;;;;;;;;;;;;;21.51;38.08;94393.31;1049592;28;968;-62
2021/11/03 00:38:47;;;;;;;;;;;;;;;21.52;38.05;94397.50;1049384;28;1036;-62
2021/11/03 00:39:17;;;;;;;;;;;;;;;21.52;38.24;94389.56;1049596;28;1197;-59
2021/11/03 00:39:48;;;;;;;;;;;;;;;21.51;38.04;94388.81;1049318;28;1209;-60
2021/11/03 00:40:18;;;;;;;;;;;;;;;21.51;38.39;94388.03;1049799;28;1091;-60
2021/11/03 00:40:49;;;;;;;;;;;;;;;21.51;38.37;94388.81;1049166;28;1198;-62
2021/11/03 00:41:19;;;;;;;;;;;;;;;21.49;38.02;94383.09;1049318;28;1095;-62
2021/11/03 00:41:50;;;;;;;;;;;;;;;21.51;38.12;94385.41;1044952;28;1260;-62
2021/11/03 00:42:20;;;;;;;;;;;;;;;21.53;37.75;94391.94;1044630;28;1260;-60
2021/11/03 00:42:51;;;;;;;;;;;;;;;21.52;38.08;94390.34;1042140;28;1814;-58
2021/11/03 00:43:22;;;;;;;;;;;;;;;21.50;38.15;94384.63;1047041;28;1424;-60
2021/11/03 00:43:53;;;;;;;;;;;;;;;21.51;38.16;94382.78;1047897;28;985;-61
2021/11/03 00:44:23;;;;;;;;;;;;;;;21.51;38.30;94386.19;1049757;28;1204;-59
2021/11/03 00:44:54;;;;;;;;;;;;;;;21.51;38.05;94380.13;1042845;28;1890;-60
2021/11/03 00:45:25;;;;;;;;;;;;;;;21.49;38.00;94379.66;1045137;28;1107;-60
2021/11/03 00:45:55;;;;;;;;;;;;;;;21.51;37.97;94382.78;1043907;28;1111;-59
2021/11/03 00:46:25;;;;;;;;;;;;;;;21.50;38.30;94371.44;1041180;28;1170;-58
2021/11/03 00:46:56;;;;;;;;;;;;;;;21.50;38.09;94376.72;1044861;28;1150;-59
2021/11/03 00:47:27;;;;;;;;;;;;;;;21.52;38.03;94369.28;1045153;28;1198;-59
2021/11/03 00:47:57;;;;;;;;;;;;;;;21.50;38.12;94371.44;1047709;28;1937;-59
2021/11/03 00:48:28;;;;;;;;;;;;;;;21.51;38.12;94359.03;1048203;28;1425;-58
2021/11/03 00:48:58;;;;;;;;;;;;;;;21.51;38.20;94361.69;1049112;28;1346;-59
2021/11/03 00:49:29;;;;;;;;;;;;;;;21.50;37.98;94355.63;1049062;28;1146;-59
2021/11/03 00:49:59;;;;;;;;;;;;;;;21.52;38.09;94355.31;1049403;28;1044;-61
2021/11/03 00:50:30;;;;;;;;;;;;;;;21.53;37.98;94354.22;1049037;28;1118;-59
2021/11/03 00:51:00;;;;;;;;;;;;;;;21.50;38.42;94346.94;1049084;28;1041;-60
2021/11/03 00:51:31;;;;;;;;;;;;;;;21.52;38.11;94350.03;1048628;28;1354;-57
2021/11/03 00:52:01;;;;;;;;;;;;;;;21.51;37.64;94357.19;1048044;28;1064;-58
2021/11/03 00:52:32;;;;;;;;;;;;;;;21.49;38.28;94355.94;1049414;28;1292;-60
2021/11/03 00:53:02;;;;;;;;;;;;;;;21.51;38.05;94348.50;1047889;28;1933;-60
2021/11/03 00:53:33;;;;;;;;;;;;;;;21.49;37.98;94355.94;1048758;28;1170;-60
2021/11/03 00:54:04;;;;;;;;;;;;;;;21.48;38.00;94357.00;1049038;28;1104;-57
2021/11/03 00:54:34;;;;;;;;;;;;;;;21.47;38.32;94350.22;1047186;28;1142;-60
2021/11/03 00:55:05;;;;;;;;;;;;;;;21.47;38.27;94350.22;1046965;28;1489;-60
2021/11/03 00:55:35;;;;;;;;;;;;;;;21.48;38.12;94349.09;1049189;28;1134;-58
2021/11/03 00:56:06;;;;;;;;;;;;;;;21.47;38.03;94350.22;1048664;28;1142;-60
2021/11/03 00:56:36;;;;;;;;;;;;;;;21.43;38.32;94354.56;1044912;28;1904;-60
2021/11/03 00:57:07;;;;;;;;;;;;;;;21.44;38.40;94348.19;1046416;28;1844;-59
2021/11/03 00:57:37;;;;;;;;;;;;;;;21.45;38.04;94355.78;1048971;28;776;-59
2021/11/03 00:58:08;;;;;;;;;;;;;;;21.44;38.13;94346.31;1043774;28;1906;-60
2021/11/03 00:58:38;;;;;;;;;;;;;;;21.44;38.52;94346.31;1045167;28;1583;-58
2021/11/03 00:59:09;;;;;;;;;;;;;;;21.46;37.96;94349.44;1044744;28;1100;-60
2021/11/03 00:59:39;;;;;;;;;;;;;;;21.46;38.41;94353.91;1044706;28;1106;-58
2021/11/03 01:00:10;;;;;;;;;;;;;;;21.43;38.10;94344.75;1043141;28;1397;-59
2021/11/03 01:00:41;;;;;;;;;;;;;;;21.45;38.12;94352.38;1049088;28;1138;-60
2021/11/03 01:01:11;;;;;;;;;;;;;;;21.46;38.08;94346.00;1048038;28;1117;-60
2021/11/03 01:01:42;;;;;;;;;;;;;;;21.45;38.54;94360.28;1048825;28;1225;-60
2021/11/03 01:02:13;;;;;;;;;;;;;;;21.43;38.16;94351.91;1049099;28;1347;-60
2021/11/03 01:02:44;;;;;;;;;;;;;;;21.41;38.46;94354.84;1049193;28;1126;-58
2021/11/03 01:03:14;;;;;;;;;;;;;;;21.41;38.06;94356.72;1045092;28;2260;-58
2021/11/03 01:03:45;;;;;;;;;;;;;;;21.42;38.25;94347.72;1045639;28;1061;-59
2021/11/03 01:04:15;;;;;;;;;;;;;;;21.41;38.63;94357.47;1048013;28;1509;-59
2021/11/03 01:04:46;;;;;;;;;;;;;;;21.43;38.25;94350.03;1049864;28;1986;-60
2021/11/03 01:05:17;;;;;;;;;;;;;;;21.42;38.27;94355.63;1048958;28;1959;-57
2021/11/03 01:05:48;;;;;;;;;;;;;;;21.43;38.15;94347.41;1048697;28;1060;-60
2021/11/03 01:06:18;;;;;;;;;;;;;;;21.44;37.89;94350.81;1048613;28;1118;-60
2021/11/03 01:06:49;;;;;;;;;;;;;;;21.44;38.26;94353.44;1048500;28;1228;-58
2021/11/03 01:07:19;;;;;;;;;;;;;;;21.43;38.09;94355.31;1044862;28;1229;-60
2021/11/03 01:07:50;;;;;;;;;;;;;;;21.45;38.18;94353.13;1047798;28;1818;-60
2021/11/03 01:08:20;;;;;;;;;;;;;;;21.43;37.82;94350.03;1048806;28;1110;-59
2021/11/03 01:08:51;;;;;;;;;;;;;;;21.44;38.19;94348.19;1049042;28;1107;-60
2021/11/03 01:09:21;;;;;;;;;;;;;;;21.44;38.46;94348.19;1049317;28;1110;-58
2021/11/03 01:09:52;;;;;;;;;;;;;;;21.44;38.13;94350.81;1048868;28;1299;-59
2021/11/03 01:10:24;;;;;;;;;;;;;;;21.45;38.14;94350.50;1049166;28;1107;-59
2021/11/03 01:10:55;;;;;;;;;;;;;;;21.45;38.22;94347.13;1048912;28;1135;-58
2021/11/03 01:11:26;;;;;;;;;;;;;;;21.44;38.20;94346.31;1044699;28;1246;-59
2021/11/03 01:11:56;;;;;;;;;;;;;;;21.43;38.15;94346.66;1044624;28;1072;-60
2021/11/03 01:12:27;;;;;;;;;;;;;;;21.43;38.23;94346.66;1044119;28;1399;-60
2021/11/03 01:12:57;;;;;;;;;;;;;;;21.42;38.11;94345.09;1046255;28;1857;-59
2021/11/03 01:13:28;;;;;;;;;;;;;;;21.40;38.15;94352.53;1048046;28;1137;-57
2021/11/03 01:13:59;;;;;;;;;;;;;;;21.41;38.13;94346.19;1049312;28;1056;-60
2021/11/03 01:14:29;;;;;;;;;;;;;;;21.42;38.00;94355.63;1048447;28;1186;-59
2021/11/03 01:15:00;;;;;;;;;;;;;;;21.41;38.18;94348.81;1051654;28;1245;-61
2021/11/03 01:15:31;;;;;;;;;;;;;;;21.42;38.23;94347.72;1051226;28;1132;-59
2021/11/03 01:16:01;;;;;;;;;;;;;;;21.43;37.85;94349.28;1050993;28;1017;-60
2021/11/03 01:16:32;;;;;;;;;;;;;;;21.40;38.02;94352.53;1052637;28;1083;-56
2021/11/03 01:17:02;;;;;;;;;;;;;;;21.39;38.17;94353.63;1049368;28;1063;-58
2021/11/03 01:17:33;;;;;;;;;;;;;;;21.41;37.93;94351.47;1049610;28;1165;-60
2021/11/03 01:18:03;;;;;;;;;;;;;;;21.41;38.07;94351.47;1046285;28;1849;-60
2021/11/03 01:18:34;;;;;;;;;;;;;;;21.42;38.25;94351.13;1048992;28;1091;-58
2021/11/03 01:19:04;;;;;;;;;;;;;;;21.42;38.37;94353.00;1048818;28;1430;-60
2021/11/03 01:19:35;;;;;;;;;;;;;;;21.44;37.83;94353.44;1044543;28;1412;-58
2021/11/03 01:20:06;;;;;;;;;;;;;;;21.43;38.09;94351.91;1044904;28;1119;-59
2021/11/03 01:20:36;;;;;;;;;;;;;;;21.41;38.29;94352.22;1040570;28;1332;-59
2021/11/03 01:21:07;;;;;;;;;;;;;;;21.41;38.04;94351.47;1040345;28;1100;-59
2021/11/03 01:21:37;;;;;;;;;;;;;;;21.41;38.09;94346.19;1043296;28;1850;-60
2021/11/03 01:22:08;;;;;;;;;;;;;;;21.38;38.32;94352.84;1044547;28;1201;-60
2021/11/03 01:22:39;;;;;;;;;;;;;;;21.37;38.20;94350.53;1048790;28;1146;-58
2021/11/03 01:23:09;;;;;;;;;;;;;;;21.39;38.46;94345.72;1046674;28;1790;-59
2021/11/03 01:23:40;;;;;;;;;;;;;;;21.39;38.23;94351.75;1049513;28;858;-58
2021/11/03 01:24:10;;;;;;;;;;;;;;;21.39;37.87;94343.84;1035139;28;1760;-60
2021/11/03 01:24:41;;;;;;;;;;;;;;;21.41;38.25;94343.56;1039565;28;962;-59
2021/11/03 01:25:12;;;;;;;;;;;;;;;21.39;38.03;94353.63;1040448;28;1906;-57
2021/11/03 01:25:43;;;;;;;;;;;;;;;21.38;38.10;94347.56;1036813;28;1175;-60
2021/11/03 01:26:13;;;;;;;;;;;;;;;21.39;38.15;94345.72;1037461;28;2026;-61
2021/11/03 01:26:44;;;;;;;;;;;;;;;21.39;38.10;94343.09;1045415;28;1585;-60
2021/11/03 01:27:14;;;;;;;;;;;;;;;21.39;38.09;94356.25;1045917;28;1122;-60
2021/11/03 01:27:45;;;;;;;;;;;;;;;21.38;38.12;94347.56;1049519;28;1186;-60
2021/11/03 01:28:16;;;;;;;;;;;;;;;21.40;38.19;94349.91;1045466;28;1234;-59
2021/11/03 01:28:46;;;;;;;;;;;;;;;21.38;37.92;94349.44;1045936;28;1092;-60
2021/11/03 01:29:17;;;;;;;;;;;;;;;21.35;38.47;94352.72;1045753;28;1221;-59
2021/11/03 01:29:47;;;;;;;;;;;;;;;21.36;37.85;94347.13;1045668;28;1373;-60
2021/11/03 01:30:18;;;;;;;;;;;;;;;21.37;38.10;94350.53;1045661;28;1403;-60
2021/11/03 01:30:49;;;;;;;;;;;;;;;21.36;38.33;94352.38;1045374;28;1769;-60
2021/11/03 01:31:19;;;;;;;;;;;;;;;21.36;38.43;94356.88;1043210;28;2351;-60
2021/11/03 01:31:50;;;;;;;;;;;;;;;21.37;38.12;94361.81;1047111;28;1159;-58
2021/11/03 01:32:20;;;;;;;;;;;;;;;21.34;38.21;94349.28;1048685;28;1331;-59
2021/11/03 01:32:51;;;;;;;;;;;;;;;21.34;38.47;94348.50;1051598;28;1088;-58
2021/11/03 01:33:22;;;;;;;;;;;;;;;21.34;38.10;94348.50;1046389;28;2361;-60
2021/11/03 01:33:56;;;;;;;;;;;;;;;21.36;38.14;94351.59;1045513;28;1571;-60
2021/11/03 01:34:26;;;;;;;;;;;;;;;21.34;38.32;94344.00;1043811;28;2173;-60
2021/11/03 01:34:56;;;;;;;;;;;;;;;21.34;38.34;94351.13;1046122;28;1211;-58
2021/11/03 01:35:31;;;;;;;;;;;;;;;21.35;37.97;94350.06;1047565;28;1544;-58
2021/11/03 01:36:01;;;;;;;;;;;;;;;21.35;37.82;94347.44;1047892;28;2013;-60
2021/11/03 01:36:32;;;;;;;;;;;;;;;21.36;38.13;94352.38;1047686;28;1603;-56
2021/11/03 01:37:03;;;;;;;;;;;;;;;21.35;38.05;94355.34;1040551;28;1082;-59
2021/11/03 01:37:33;;;;;;;;;;;;;;;21.35;38.12;94352.72;1041698;28;1203;-59
2021/11/03 01:38:04;;;;;;;;;;;;;;;21.35;38.18;94352.72;1045730;28;1105;-59
2021/11/03 01:38:34;;;;;;;;;;;;;;;21.35;38.20;94353.47;1041783;28;1151;-59
2021/11/03 01:39:05;;;;;;;;;;;;;;;21.36;38.02;94348.97;1049587;28;1126;-59
2021/11/03 01:39:36;;;;;;;;;;;;;;;21.33;38.28;94355.63;1050022;28;1151;-59
2021/11/03 01:40:07;;;;;;;;;;;;;;;21.35;38.14;94352.72;1050032;28;1096;-60
2021/11/03 01:40:38;;;;;;;;;;;;;;;21.36;38.05;94351.59;1049928;28;1146;-60
2021/11/03 01:41:09;;;;;;;;;;;;;;;21.34;38.22;94351.13;1048245;28;2024;-57
2021/11/03 01:41:40;;;;;;;;;;;;;;;21.35;38.13;94352.72;1049914;28;963;-59
2021/11/03 01:42:10;;;;;;;;;;;;;;;21.35;38.21;94350.06;1049680;28;1394;-58
2021/11/03 01:42:41;;;;;;;;;;;;;;;21.34;38.01;94348.50;1048548;28;1601;-59
2021/11/03 01:43:38;;;;;;;;;;;;;;;21.35;38.33;94347.44;1050011;28;1152;-59
2021/11/03 01:44:09;;;;;;;;;;;;;;;21.34;38.42;94335.31;1045920;28;1273;-59
2021/11/03 01:44:40;;;;;;;;;;;;;;;21.33;38.39;94333.78;1035283;28;1628;-60
2021/11/03 01:45:11;;;;;;;;;;;;;;;21.34;38.30;94340.59;1037104;28;1906;-58
2021/11/03 01:45:41;;;;;;;;;;;;;;;21.33;38.30;94339.81;1038074;28;1683;-58
2021/11/03 01:46:19;;;;;;;;;;;;;;;21.34;38.29;94337.97;1042908;28;1888;-60
2021/11/03 01:46:50;;;;;;;;;;;;;;;21.34;38.12;94343.22;1049639;28;1350;-60
2021/11/03 01:48:00;;;;;;;;;;;;;;;21.33;38.32;94334.53;1049813;28;1241;-59
2021/11/03 01:48:30;;;;;;;;;;;;;;;21.31;38.05;94328.06;1048515;28;1482;-58
2021/11/03 01:49:03;;;;;;;;;;;;;;;21.31;38.19;94328.81;1048361;28;1296;-60
2021/11/03 01:49:33;;;;;;;;;;;;;;;21.32;38.18;94327.75;1045271;28;1233;-57
2021/11/03 01:50:04;;;;;;;;;;;;;;;21.31;37.71;94322.78;1045263;28;967;-58
2021/11/03 01:50:44;;;;;;;;;;;;;;;21.32;38.39;94319.84;1040972;28;1333;-60
2021/11/03 01:51:16;;;;;;;;;;;;;;;21.32;38.16;94329.59;1036571;28;2637;-59
2021/11/03 01:51:52;;;;;;;;;;;;;;;21.32;38.16;94326.97;1036466;28;1729;-59
2021/11/03 01:52:22;;;;;;;;;;;;;;;21.31;38.01;94325.44;1038840;28;1269;-59
2021/11/03 01:53:04;;;;;;;;;;;;;;;21.33;37.94;94323.25;1042296;28;1202;-59
2021/11/03 01:53:35;;;;;;;;;;;;;;;21.34;37.92;94322.16;1041069;28;1167;-60
2021/11/03 01:54:06;;;;;;;;;;;;;;;21.33;38.34;94320.63;1036995;28;1602;-59
2021/11/03 01:54:40;;;;;;;;;;;;;;;21.34;37.97;94322.16;1043211;28;1154;-60
2021/11/03 01:55:11;;;;;;;;;;;;;;;21.33;38.12;94317.97;1041039;28;1150;-61
2021/11/03 01:55:42;;;;;;;;;;;;;;;21.31;37.99;94320.91;1041537;28;1152;-58
2021/11/03 01:56:13;;;;;;;;;;;;;;;21.31;38.05;94323.53;1040575;28;2060;-59
2021/11/03 01:56:43;;;;;;;;;;;;;;;21.28;37.99;94316.28;1045500;28;1139;-60
2021/11/03 01:57:15;;;;;;;;;;;;;;;21.31;38.02;94320.16;1041842;28;1593;-58
2021/11/03 01:57:50;;;;;;;;;;;;;;;21.31;38.10;94317.50;1041577;28;1043;-60
2021/11/03 01:58:25;;;;;;;;;;;;;;;21.31;38.08;94320.91;1044882;28;1200;-57
2021/11/03 01:59:06;;;;;;;;;;;;;;;21.29;38.25;94314.41;1043854;28;1069;-58
2021/11/03 01:59:43;;;;;;;;;;;;;;;21.29;38.00;94315.16;1043754;28;1277;-60
2021/11/03 02:00:17;;;;;;;;;;;;;;;21.27;38.09;94308.69;1042564;28;1095;-60
2021/11/03 02:00:49;;;;;;;;;;;;;;;21.29;38.24;94317.06;1048549;28;1068;-59
2021/11/03 02:01:20;;;;;;;;;;;;;;;21.28;38.08;94315.50;1044939;28;2015;-59
2021/11/03 02:01:50;;;;;;;;;;;;;;;21.29;38.21;94314.41;1043533;28;1761;-60
2021/11/03 02:02:21;;;;;;;;;;;;;;;21.28;38.02;94304.94;1041087;28;1201;-58
2021/11/03 02:02:52;;;;;;;;;;;;;;;21.28;38.06;94308.38;1040954;28;2329;-59
2021/11/03 02:03:24;;;;;;;;;;;;;;;21.29;37.92;94307.25;1045833;28;1245;-59
2021/11/03 02:03:55;;;;;;;;;;;;;;;21.29;37.96;94312.53;1043788;28;1987;-60
2021/11/03 02:04:25;;;;;;;;;;;;;;;21.30;38.05;94300.13;1040925;28;1127;-60
2021/11/03 02:04:56;;;;;;;;;;;;;;;21.30;37.94;94311.47;1041629;28;1913;-59
2021/11/03 02:05:27;;;;;;;;;;;;;;;21.30;37.87;94308.03;1044549;28;1175;-60
2021/11/03 02:06:02;;;;;;;;;;;;;;;21.29;38.25;94303.88;1045155;28;1494;-58
2021/11/03 02:06:33;;;;;;;;;;;;;;;21.28;38.14;94304.94;1049311;28;1726;-58
2021/11/03 02:07:06;;;;;;;;;;;;;;;21.29;37.93;94309.16;1045234;28;1078;-59
2021/11/03 02:07:36;;;;;;;;;;;;;;;21.29;37.82;94306.50;1045568;28;1519;-59
2021/11/03 02:08:10;;;;;;;;;;;;;;;21.30;37.92;94300.13;1036354;28;1384;-59
2021/11/03 02:09:01;;;;;;;;;;;;;;;21.29;38.09;94307.25;1042918;28;1184;-59
2021/11/03 02:09:51;;;;;;;;;;;;;;;21.31;37.97;94302.44;1046907;28;952;-58
2021/11/03 02:10:42;;;;;;;;;;;;;;;21.30;38.14;94297.50;1046143;28;1054;-58
2021/11/03 02:11:17;;;;;;;;;;;;;;;21.30;38.07;94292.22;1048320;28;2160;-58
2021/11/03 02:11:48;;;;;;;;;;;;;;;21.30;38.19;94290.38;1053723;28;1107;-59
2021/11/03 02:12:28;;;;;;;;;;;;;;;21.29;38.14;94286.19;1049490;28;1220;-58
2021/11/03 02:13:19;;;;;;;;;;;;;;;21.28;38.07;94278.59;1049087;28;1172;-60
2021/11/03 02:13:50;;;;;;;;;;;;;;;21.28;38.02;94276.75;1045492;28;1394;-59
2021/11/03 02:14:38;;;;;;;;;;;;;;;21.27;38.10;94271.78;1044972;28;1845;-59
2021/11/03 02:15:28;;;;;;;;;;;;;;;21.26;37.75;94270.22;1039401;28;2060;-60
2021/11/03 02:16:00;;;;;;;;;;;;;;;21.25;38.24;94268.66;1043901;28;2103;-61
2021/11/03 02:16:30;;;;;;;;;;;;;;;21.27;38.13;94269.16;1040234;28;2072;-60
2021/11/03 02:17:01;;;;;;;;;;;;;;;21.25;38.15;94273.94;1044449;28;1510;-60
2021/11/03 02:17:32;;;;;;;;;;;;;;;21.26;38.05;94265.72;1045410;28;1260;-59
2021/11/03 02:18:13;;;;;;;;;;;;;;;21.25;37.94;94271.28;1042794;28;1083;-59
2021/11/03 02:19:04;;;;;;;;;;;;;;;21.23;38.38;94276.09;1045550;28;2373;-59
2021/11/03 02:19:49;;;;;;;;;;;;;;;21.24;38.02;94267.13;1040721;28;1351;-62
2021/11/03 02:20:40;;;;;;;;;;;;;;;21.25;38.10;94271.28;1043138;28;1093;-60
2021/11/03 02:21:31;;;;;;;;;;;;;;;21.25;38.02;94258.91;1044716;28;2289;-61
2021/11/03 02:22:07;;;;;;;;;;;;;;;21.26;38.02;94265.72;1045045;28;1339;-60
2021/11/03 02:22:40;;;;;;;;;;;;;;;21.25;38.08;94261.53;1039740;28;1336;-61
2021/11/03 02:23:26;;;;;;;;;;;;;;;21.27;37.79;94264.63;1040544;28;1308;-61
2021/11/03 02:24:19;;;;;;;;;;;;;;;21.27;38.05;94258.59;1044261;28;1643;-58
2021/11/03 02:25:11;;;;;;;;;;;;;;;21.25;38.08;94258.91;1053298;28;1886;-59
2021/11/03 02:25:53;;;;;;;;;;;;;;;21.24;38.06;94267.13;1044819;28;1399;-57
2021/11/03 02:26:25;;;;;;;;;;;;;;;21.25;37.91;94264.19;1043748;28;1135;-59
2021/11/03 02:26:57;;;;;;;;;;;;;;;21.24;38.02;94264.50;1040113;28;1577;-59
2021/11/03 02:27:48;;;;;;;;;;;;;;;21.24;37.82;94257.38;1038927;28;1256;-59
2021/11/03 02:28:39;;;;;;;;;;;;;;;21.23;37.71;94263.72;1040960;28;1255;-61
2021/11/03 02:29:29;;;;;;;;;;;;;;;21.22;37.99;94261.41;1042244;28;1133;-59
2021/11/03 02:30:20;;;;;;;;;;;;;;;21.23;38.10;94260.28;1040746;28;1397;-60
2021/11/03 02:30:54;;;;;;;;;;;;;;;21.23;38.18;94260.28;1046107;28;1186;-58
2021/11/03 02:31:28;;;;;;;;;;;;;;;21.23;38.06;94262.94;1049642;28;1118;-59
2021/11/03 02:32:10;;;;;;;;;;;;;;;21.21;38.04;94257.19;1047933;28;2083;-59
2021/11/03 02:33:10;;;;;;;;;;;;;;;21.23;38.16;94260.28;1045797;28;1096;-59
2021/11/03 02:34:02;;;;;;;;;;;;;;;21.23;38.11;94260.28;1048122;28;1137;-58
2021/11/03 02:34:33;;;;;;;;;;;;;;;21.24;37.69;94261.84;1048992;28;1245;-58
2021/11/03 02:35:06;;;;;;;;;;;;;;;21.24;38.16;94256.59;1048551;28;1115;-59
2021/11/03 02:35:37;;;;;;;;;;;;;;;21.24;38.03;94261.84;1048763;28;1020;-56
2021/11/03 02:36:28;;;;;;;;;;;;;;;21.23;37.92;94255.03;1046225;28;1285;-60
2021/11/03 02:37:27;;;;;;;;;;;;;;;21.23;37.69;94255.03;1046556;28;1206;-59
2021/11/03 02:37:58;;;;;;;;;;;;;;;21.22;37.93;94264.03;1043844;28;1510;-58
2021/11/03 02:38:30;;;;;;;;;;;;;;;21.22;37.78;94258.75;1042863;28;1419;-59
2021/11/03 02:39:09;;;;;;;;;;;;;;;21.20;37.75;94260.94;1033603;28;1342;-57
2021/11/03 02:40:03;;;;;;;;;;;;;;;21.22;37.45;94258.75;1041328;28;1100;-56
2021/11/03 02:41:14;;;;;;;;;;;;;;;21.20;37.76;94261.72;1039683;28;1200;-59
2021/11/03 02:41:45;;;;;;;;;;;;;;;21.21;37.79;94257.97;1048561;28;2044;-58
2021/11/03 02:42:36;;;;;;;;;;;;;;;21.22;37.99;94249.00;1049552;28;1844;-59
2021/11/03 02:43:31;;;;;;;;;;;;;;;21.23;37.99;94249.75;1045248;28;1416;-58
2021/11/03 02:44:04;;;;;;;;;;;;;;;21.22;37.77;94253.50;1040687;28;1191;-59
2021/11/03 02:44:36;;;;;;;;;;;;;;;21.22;37.64;94249.00;1040824;28;1238;-59
2021/11/03 02:45:08;;;;;;;;;;;;;;;21.21;37.81;94250.06;1040994;28;1878;-58
2021/11/03 02:45:50;;;;;;;;;;;;;;;21.20;38.22;94248.53;1036168;28;2171;-59
2021/11/03 02:46:21;;;;;;;;;;;;;;;21.20;37.79;94245.91;1041109;28;1341;-59
2021/11/03 02:46:51;;;;;;;;;;;;;;;21.21;38.25;94249.28;1040310;28;2017;-58
2021/11/03 02:47:22;;;;;;;;;;;;;;;21.21;38.08;94249.28;1042876;28;1074;-59
2021/11/03 02:47:52;;;;;;;;;;;;;;;21.20;38.12;94248.53;1045540;28;1053;-57
2021/11/03 02:48:24;;;;;;;;;;;;;;;21.20;37.82;94245.13;1049468;28;1240;-58
2021/11/03 02:48:55;;;;;;;;;;;;;;;21.18;38.00;94244.66;1048560;28;2000;-59
2021/11/03 02:49:25;;;;;;;;;;;;;;;21.19;38.11;94246.19;1048836;28;1563;-58
2021/11/03 02:49:56;;;;;;;;;;;;;;;21.20;37.76;94245.13;1047362;28;1749;-59
2021/11/03 02:50:26;;;;;;;;;;;;;;;21.17;38.03;94240.47;1049689;28;1039;-59
2021/11/03 02:51:00;;;;;;;;;;;;;;;21.18;38.04;94242.81;1049522;28;1150;-57
2021/11/03 02:51:30;;;;;;;;;;;;;;;21.18;37.92;94242.81;1049886;28;1146;-58
2021/11/03 02:52:01;;;;;;;;;;;;;;;21.19;37.91;94233.03;1047004;28;2032;-60
2021/11/03 02:52:32;;;;;;;;;;;;;;;21.18;38.02;94236.75;1048912;28;1221;-59
2021/11/03 02:53:02;;;;;;;;;;;;;;;21.18;38.06;94231.50;1049907;28;1080;-59
2021/11/03 02:53:34;;;;;;;;;;;;;;;21.18;37.91;94242.03;1049607;28;1154;-59
2021/11/03 02:54:05;;;;;;;;;;;;;;;21.20;38.04;94237.22;1048361;28;1537;-59
2021/11/03 02:54:36;;;;;;;;;;;;;;;21.19;37.76;94233.81;1053138;28;1242;-60
2021/11/03 02:55:07;;;;;;;;;;;;;;;21.17;37.73;94233.34;1051674;28;1530;-59